createdAt,value
2022-12-23T00:00:38.719Z,15.73
2022-12-23T00:03:05.760Z,18.92
2022-12-23T00:05:38.206Z,19.23
2022-12-23T00:08:06.712Z,16.75
2022-12-23T00:10:34.991Z,12.52
2022-12-23T00:13:20.355Z,13.63
2022-12-23T00:15:47.076Z,16.02
2022-12-23T00:18:13.924Z,19.50
2022-12-23T00:20:40.652Z,10.73
2022-12-23T00:23:07.509Z,15.45
2022-12-23T00:25:43.869Z,13.93
2022-12-23T00:28:17.213Z,20.45
2022-12-23T00:31:08.625Z,13.57
2022-12-23T00:33:38.044Z,22.38
2022-12-23T00:36:19.293Z,12.50
2022-12-23T00:39:05.876Z,10.82
2022-12-23T00:41:51.440Z,11.95
2022-12-23T00:44:18.241Z,14.82
2022-12-23T00:46:45.045Z,8.93
2022-12-23T00:49:31.635Z,11.43
2022-12-23T00:54:25.393Z,16.42
2022-12-23T00:56:52.134Z,11.82
2022-12-23T00:59:19.148Z,14.45
2022-12-23T01:02:05.144Z,16.77
2022-12-23T01:04:50.990Z,19.17
2022-12-23T01:07:21.646Z,12.18
2022-12-23T01:09:48.388Z,14.73
2022-12-23T01:12:15.136Z,12.73
2022-12-23T01:14:41.940Z,14.63
2022-12-23T01:17:09.071Z,11.20
2022-12-23T01:19:35.978Z,13.30
2022-12-23T01:22:02.968Z,15.63
2022-12-23T01:24:33.079Z,13.35
2022-12-23T01:27:00.383Z,10.70
2022-12-23T01:29:27.160Z,14.00
2022-12-23T01:31:54.045Z,9.38
2022-12-23T01:34:21.027Z,8.30
2022-12-23T01:36:47.863Z,14.05
2022-12-23T01:39:14.711Z,14.63
2022-12-23T01:42:00.010Z,13.13
2022-12-23T01:45:00.661Z,16.52
2022-12-23T01:47:30.113Z,9.82
2022-12-23T01:50:14.019Z,9.27
2022-12-23T01:52:47.598Z,13.25
2022-12-23T01:55:20.792Z,12.43
2022-12-23T01:57:48.717Z,12.77
2022-12-23T02:00:34.790Z,10.00
2022-12-23T02:03:20.409Z,12.43
2022-12-23T02:05:48.268Z,15.90
2022-12-23T02:08:35.416Z,18.35
2022-12-23T02:11:28.761Z,8.82
2022-12-23T02:14:43.142Z,15.32
2022-12-23T02:17:24.745Z,10.57
2022-12-23T02:20:13.791Z,11.90
2022-12-23T02:22:59.279Z,13.85
2022-12-23T02:25:53.788Z,12.80
2022-12-23T02:29:00.427Z,12.82
2022-12-23T02:31:35.971Z,14.60
2022-12-23T02:34:37.197Z,16.05
2022-12-23T02:37:13.023Z,13.00
2022-12-23T02:39:52.101Z,17.30
2022-12-23T02:42:24.196Z,7.72
2022-12-23T02:45:15.789Z,10.93
2022-12-23T02:47:48.316Z,16.23
2022-12-23T02:50:24.069Z,10.80
2022-12-23T02:52:52.386Z,12.30
2022-12-23T02:55:27.748Z,11.20
2022-12-23T02:57:57.774Z,14.87
2022-12-23T03:00:24.633Z,12.40
2022-12-23T03:02:51.520Z,15.75
2022-12-23T03:05:39.164Z,11.15
2022-12-23T03:08:13.965Z,12.18
2022-12-23T03:10:49.630Z,11.55
2022-12-23T03:13:19.449Z,12.77
2022-12-23T03:15:53.978Z,10.23
2022-12-23T03:18:41.101Z,12.50
2022-12-23T03:21:20.201Z,14.90
2022-12-23T03:24:01.229Z,12.70
2022-12-23T03:26:40.524Z,13.13
2022-12-23T03:29:37.567Z,11.05
2022-12-23T03:34:39.282Z,10.88
2022-12-23T03:37:09.500Z,10.68
2022-12-23T03:39:46.632Z,13.20
2022-12-23T03:42:38.684Z,14.98
2022-12-23T03:50:33.545Z,11.43
2022-12-23T03:53:02.008Z,13.65
2022-12-23T03:55:36.135Z,14.80
2022-12-23T03:58:11.920Z,9.27
2022-12-23T04:00:45.725Z,9.40
2022-12-23T04:03:31.234Z,9.52
2022-12-23T04:06:01.749Z,9.07
2022-12-23T04:08:35.774Z,14.13
2022-12-23T04:11:03.511Z,13.63
2022-12-23T04:13:31.215Z,11.02
2022-12-23T04:16:02.461Z,10.35
2022-12-23T04:18:29.579Z,8.80
2022-12-23T04:20:56.370Z,14.32
2022-12-23T04:23:23.308Z,10.40
2022-12-23T04:25:50.096Z,10.90
2022-12-23T04:28:18.232Z,10.23
2022-12-23T04:30:44.928Z,7.85
2022-12-23T04:33:12.435Z,10.45
2022-12-23T04:35:39.221Z,10.40
2022-12-23T04:38:06.231Z,9.88
2022-12-23T04:40:33.009Z,11.10
2022-12-23T04:42:59.745Z,13.32
2022-12-23T04:45:26.499Z,9.75
2022-12-23T04:47:54.538Z,9.15
2022-12-23T04:50:21.351Z,9.90
2022-12-23T04:52:48.048Z,9.20
2022-12-23T04:55:14.816Z,9.52
2022-12-23T04:57:41.582Z,9.75
2022-12-23T05:00:09.915Z,9.60
2022-12-23T05:02:36.719Z,11.77
2022-12-23T05:05:04.155Z,7.82
2022-12-23T05:07:30.876Z,9.35
2022-12-23T05:10:01.743Z,11.82
2022-12-23T05:12:31.931Z,10.75
2022-12-23T05:14:58.693Z,7.03
2022-12-23T05:17:25.459Z,9.05
2022-12-23T05:19:52.455Z,8.90
2022-12-23T05:22:19.237Z,10.73
2022-12-23T05:24:46.091Z,13.10
2022-12-23T05:27:12.877Z,6.80
2022-12-23T05:29:39.644Z,9.80
2022-12-23T05:32:06.484Z,8.68
2022-12-23T05:34:33.268Z,8.80
2022-12-23T05:37:00.087Z,9.23
2022-12-23T05:39:26.782Z,9.63
2022-12-23T05:41:53.593Z,10.13
2022-12-23T05:44:20.299Z,7.93
2022-12-23T05:46:47.047Z,9.07
2022-12-23T05:49:13.830Z,7.93
2022-12-23T05:51:40.593Z,7.78
2022-12-23T05:54:07.351Z,10.82
2022-12-23T05:56:34.096Z,9.20
2022-12-23T05:59:00.853Z,10.63
2022-12-23T06:01:27.637Z,7.78
2022-12-23T06:03:54.557Z,9.23
2022-12-23T06:06:21.302Z,5.60
2022-12-23T06:08:48.031Z,6.88
2022-12-23T06:11:14.834Z,9.45
2022-12-23T06:13:41.563Z,5.95
2022-12-23T06:16:08.273Z,7.80
2022-12-23T06:18:35.048Z,7.57
2022-12-23T06:21:01.787Z,8.70
2022-12-23T06:23:28.553Z,7.32
2022-12-23T06:26:02.267Z,8.15
2022-12-23T06:28:29.350Z,7.93
2022-12-23T06:30:57.267Z,4.75
2022-12-23T06:33:24.991Z,6.68
2022-12-23T06:35:51.995Z,10.40
2022-12-23T06:38:18.875Z,5.60
2022-12-23T06:40:45.705Z,3.45
2022-12-23T06:43:13.469Z,4.03
2022-12-23T06:45:40.827Z,3.25
2022-12-23T06:48:07.813Z,3.20
2022-12-23T06:50:34.599Z,3.60
2022-12-23T06:53:01.416Z,4.55
2022-12-23T06:55:28.154Z,5.68
2022-12-23T06:57:54.861Z,3.25
2022-12-23T07:00:21.615Z,4.18
2022-12-23T07:02:48.385Z,4.45
2022-12-23T07:05:15.458Z,6.25
2022-12-23T07:07:42.230Z,6.05
2022-12-23T07:10:09.824Z,6.03
2022-12-23T07:12:36.632Z,4.43
2022-12-23T07:15:03.552Z,3.88
2022-12-23T07:17:30.528Z,3.17
2022-12-23T07:19:57.275Z,5.63
2022-12-23T07:22:24.204Z,5.60
2022-12-23T07:24:50.898Z,4.18
2022-12-23T07:27:17.613Z,6.65
2022-12-23T07:29:44.434Z,3.90
2022-12-23T07:32:11.257Z,4.57
2022-12-23T07:34:38.059Z,4.05
2022-12-23T07:37:04.778Z,2.60
2022-12-23T07:39:31.492Z,1.40
2022-12-23T07:42:25.022Z,2.55
2022-12-23T07:54:31.395Z,10.55
2022-12-23T07:56:58.180Z,3.75
2022-12-23T07:59:27.957Z,5.50
2022-12-23T08:01:54.766Z,3.10
2022-12-23T08:04:21.826Z,1.95
2022-12-23T08:06:48.673Z,2.08
2022-12-23T08:09:15.556Z,1.67
2022-12-23T08:11:42.301Z,2.60
2022-12-23T08:14:09.134Z,2.88
2022-12-23T08:16:43.109Z,2.75
2022-12-23T08:19:10.635Z,3.28
2022-12-23T08:21:37.428Z,1.33
2022-12-23T08:24:04.393Z,1.58
2022-12-23T08:26:35.311Z,3.08
2022-12-23T08:29:02.138Z,4.57
2022-12-23T08:31:33.907Z,2.50
2022-12-23T08:34:01.444Z,3.03
2022-12-23T08:36:31.946Z,3.92
2022-12-23T08:39:01.014Z,2.15
2022-12-23T08:41:34.163Z,1.88
2022-12-23T08:44:01.075Z,1.70
2022-12-23T08:46:28.477Z,1.98
2022-12-23T08:48:55.611Z,1.27
2022-12-23T08:51:24.511Z,2.53
2022-12-23T08:53:57.927Z,1.60
2022-12-23T08:56:35.847Z,1.63
2022-12-23T08:59:03.677Z,1.17
2022-12-23T09:01:33.009Z,4.55
2022-12-23T09:04:06.142Z,2.42
2022-12-23T09:06:37.221Z,3.58
2022-12-23T09:09:05.230Z,1.60
2022-12-23T09:11:33.733Z,2.72
2022-12-23T09:14:02.181Z,0.98
2022-12-23T09:16:29.715Z,1.35
2022-12-23T09:18:57.155Z,1.65
2022-12-23T09:21:24.622Z,2.25
2022-12-23T09:23:52.329Z,2.80
2022-12-23T09:26:28.604Z,2.47
2022-12-23T09:28:56.349Z,4.53
2022-12-23T09:31:25.306Z,7.60
2022-12-23T09:33:54.844Z,3.33
2022-12-23T09:36:22.506Z,3.22
2022-12-23T09:38:55.190Z,7.50
2022-12-23T09:41:52.223Z,3.08
2022-12-23T09:44:30.601Z,6.18
2022-12-23T09:47:02.147Z,8.13
2022-12-23T09:49:29.210Z,9.80
2022-12-23T09:52:02.562Z,5.70
2022-12-23T09:54:34.708Z,6.15
2022-12-23T09:57:28.514Z,4.50
2022-12-23T10:00:10.578Z,10.15
2022-12-23T10:03:06.588Z,7.53
2022-12-23T10:05:52.985Z,4.38
2022-12-23T10:08:34.520Z,6.70
2022-12-23T10:11:14.098Z,6.30
2022-12-23T10:14:12.130Z,5.60
2022-12-23T10:16:42.784Z,4.88
2022-12-23T10:19:25.358Z,2.97
2022-12-23T10:22:00.673Z,3.80
2022-12-23T10:24:36.391Z,3.43
2022-12-23T10:27:32.594Z,3.85
2022-12-23T10:30:33.669Z,5.27
2022-12-23T10:33:04.775Z,4.45
2022-12-23T10:35:46.660Z,3.97
2022-12-23T10:38:38.200Z,3.97
2022-12-23T10:41:28.031Z,7.70
2022-12-23T10:44:21.225Z,9.93
2022-12-23T10:46:50.856Z,8.95
2022-12-23T10:49:32.633Z,11.45
2022-12-23T10:52:08.931Z,5.47
2022-12-23T10:54:37.479Z,6.55
2022-12-23T10:57:07.006Z,1.95
2022-12-23T10:59:36.652Z,3.08
2022-12-23T11:02:12.900Z,5.38
2022-12-23T11:04:45.916Z,4.53
2022-12-23T11:07:43.931Z,6.38
2022-12-23T11:10:32.738Z,5.60
2022-12-23T11:13:00.692Z,4.15
2022-12-23T11:15:41.394Z,2.75
2022-12-23T11:18:11.255Z,3.97
2022-12-23T11:20:40.254Z,3.85
2022-12-23T11:23:27.080Z,2.90
2022-12-23T11:26:04.237Z,8.13
2022-12-23T11:28:32.692Z,3.78
2022-12-23T11:31:12.276Z,7.70
2022-12-23T11:33:46.128Z,4.53
2022-12-23T11:36:12.771Z,6.18
2022-12-23T11:39:03.793Z,4.05
2022-12-23T11:41:43.384Z,8.55
2022-12-23T11:44:15.897Z,22.83
2022-12-23T11:46:42.615Z,14.07
2022-12-23T11:49:23.105Z,9.10
2022-12-23T11:52:10.035Z,3.42
2022-12-23T11:54:37.256Z,15.82
2022-12-23T11:57:08.635Z,10.57
2022-12-23T11:59:42.101Z,20.00
2022-12-23T12:02:33.658Z,32.15
2022-12-23T12:05:04.337Z,12.43
2022-12-23T12:07:32.037Z,17.27
2022-12-23T12:10:01.236Z,10.95
2022-12-23T12:12:29.761Z,6.30
2022-12-23T12:15:00.334Z,9.13
2022-12-23T12:17:41.373Z,11.05
2022-12-23T12:20:22.797Z,9.48
2022-12-23T12:23:11.180Z,11.07
2022-12-23T12:25:50.599Z,4.88
2022-12-23T12:28:24.987Z,5.88
2022-12-23T12:30:59.384Z,9.68
2022-12-23T12:33:35.761Z,12.60
2022-12-23T12:36:32.168Z,16.73
2022-12-23T12:39:00.253Z,16.27
2022-12-23T12:41:37.664Z,8.05
2022-12-23T12:44:16.372Z,17.67
2022-12-23T12:46:51.426Z,14.07
2022-12-23T12:49:41.169Z,11.75
2022-12-23T12:52:19.355Z,14.27
2022-12-23T12:54:53.506Z,9.50
2022-12-23T12:57:22.757Z,9.60
2022-12-23T12:59:54.871Z,24.80
2022-12-23T13:02:47.572Z,12.60
2022-12-23T13:05:39.161Z,12.20
2022-12-23T13:08:21.350Z,7.75
2022-12-23T13:11:08.904Z,6.45
2022-12-23T13:14:04.108Z,7.85
2022-12-23T13:16:41.776Z,6.13
2022-12-23T13:19:14.111Z,6.32
2022-12-23T13:22:01.532Z,7.43
2022-12-23T13:24:50.029Z,6.15
2022-12-23T13:28:04.882Z,8.63
2022-12-23T13:30:43.760Z,5.28
2022-12-23T13:33:30.963Z,12.68
2022-12-23T13:36:23.814Z,17.67
2022-12-23T13:39:22.395Z,14.07
2022-12-23T13:41:58.550Z,13.75
2022-12-23T13:44:30.423Z,9.18
2022-12-23T13:47:15.422Z,7.85
2022-12-23T13:49:53.898Z,8.93
2022-12-23T13:52:47.549Z,8.68
2022-12-23T13:55:36.894Z,7.93
2022-12-23T13:58:17.299Z,6.10
2022-12-23T14:00:44.921Z,10.63
2022-12-23T14:03:12.701Z,12.25
2022-12-23T14:05:41.994Z,8.88
2022-12-23T14:08:23.280Z,13.68
2022-12-23T14:11:17.986Z,11.05
2022-12-23T14:13:50.838Z,8.20
2022-12-23T14:16:40.618Z,7.57
2022-12-23T14:19:38.422Z,7.55
2022-12-23T14:22:26.433Z,11.55
2022-12-23T14:25:05.220Z,13.57
2022-12-23T14:27:50.169Z,12.75
2022-12-23T14:30:42.716Z,10.35
2022-12-23T14:33:18.353Z,11.95
2022-12-23T14:35:45.071Z,15.23
2022-12-23T14:38:14.928Z,15.73
2022-12-23T14:40:53.557Z,11.13
2022-12-23T14:43:23.466Z,13.10
2022-12-23T14:45:51.516Z,13.27
2022-12-23T14:48:33.627Z,17.30
2022-12-23T14:51:09.008Z,12.15
2022-12-23T14:53:58.883Z,16.17
2022-12-23T14:56:40.912Z,10.68
2022-12-23T14:59:30.240Z,12.13
2022-12-23T15:02:16.254Z,11.50
2022-12-23T15:04:50.716Z,15.63
2022-12-23T15:07:40.739Z,13.40
2022-12-23T15:10:25.934Z,13.40
2022-12-23T15:12:56.855Z,17.02
2022-12-23T15:15:26.563Z,14.80
2022-12-23T15:18:02.319Z,20.98
2022-12-23T15:20:29.158Z,25.27
2022-12-23T15:23:00.775Z,16.40
2022-12-23T15:25:33.472Z,19.40
2022-12-23T15:28:03.109Z,14.27
2022-12-23T15:30:37.375Z,16.52
2022-12-23T15:33:21.798Z,13.48
2022-12-23T15:35:54.023Z,14.50
2022-12-23T15:38:27.198Z,32.28
2022-12-23T15:41:18.616Z,24.08
2022-12-23T15:43:45.456Z,38.13
2022-12-23T15:46:17.067Z,25.13
2022-12-23T15:48:44.120Z,21.98
2022-12-23T15:51:49.701Z,20.45
2022-12-23T15:54:08.505Z,20.15
2022-12-23T15:56:38.769Z,22.00
2022-12-23T15:59:15.248Z,22.45
2022-12-23T16:01:42.272Z,20.90
2022-12-23T16:04:17.565Z,20.42
2022-12-23T16:06:49.868Z,22.07
2022-12-23T16:09:16.505Z,22.38
2022-12-23T16:11:56.467Z,20.70
2022-12-23T16:14:35.962Z,21.85
2022-12-23T16:17:08.661Z,22.70
2022-12-23T16:19:45.732Z,21.83
2022-12-23T16:22:34.469Z,21.83
2022-12-23T16:25:19.446Z,19.17
2022-12-23T16:27:56.363Z,20.77
2022-12-23T16:30:29.246Z,25.48
2022-12-23T16:32:58.331Z,24.92
2022-12-23T16:35:40.290Z,29.50
2022-12-23T16:38:23.309Z,28.15
2022-12-23T16:40:56.170Z,27.88
2022-12-23T16:43:24.928Z,25.92
2022-12-23T16:45:55.001Z,23.60
2022-12-23T16:48:38.316Z,25.05
2022-12-23T16:51:13.821Z,23.67
2022-12-23T16:53:40.591Z,24.73
2022-12-23T16:56:17.886Z,24.48
2022-12-23T16:58:45.057Z,20.10
2022-12-23T17:01:36.691Z,21.73
2022-12-23T17:04:04.894Z,20.27
2022-12-23T17:06:31.623Z,22.08
2022-12-23T17:08:58.346Z,20.27
2022-12-23T17:11:28.052Z,20.55
2022-12-23T17:14:01.377Z,20.33
2022-12-23T17:16:30.862Z,19.75
2022-12-23T17:18:57.799Z,14.27
2022-12-23T17:21:26.060Z,13.40
2022-12-23T17:23:54.535Z,15.70
2022-12-23T17:26:21.314Z,15.55
2022-12-23T17:28:48.070Z,12.77
2022-12-23T17:31:26.591Z,14.18
2022-12-23T17:33:54.489Z,13.70
2022-12-23T17:36:21.916Z,14.70
2022-12-23T17:38:48.789Z,12.57
2022-12-23T17:41:31.143Z,14.25
2022-12-23T17:43:58.359Z,12.95
2022-12-23T17:46:26.375Z,14.43
2022-12-23T17:48:53.418Z,13.77
2022-12-23T17:51:22.649Z,10.98
2022-12-23T17:53:56.803Z,12.10
2022-12-23T17:56:25.064Z,9.88
2022-12-23T17:58:51.885Z,12.07
2022-12-23T18:01:28.042Z,11.73
2022-12-23T18:06:23.977Z,10.88
2022-12-23T18:08:51.310Z,8.60
2022-12-23T18:11:33.085Z,10.68
2022-12-23T18:14:00.454Z,8.48
2022-12-23T18:16:27.508Z,6.38
2022-12-23T18:18:54.370Z,5.80
2022-12-23T18:21:24.125Z,6.03
2022-12-23T18:23:53.411Z,5.72
2022-12-23T18:26:20.364Z,4.63
2022-12-23T18:28:47.095Z,3.90
2022-12-23T18:31:20.231Z,3.25
2022-12-23T18:33:47.817Z,4.38
2022-12-23T18:36:28.286Z,3.22
2022-12-23T18:38:56.997Z,4.35
2022-12-23T18:41:24.642Z,3.63
2022-12-23T18:43:51.697Z,6.68
2022-12-23T18:46:20.210Z,4.47
2022-12-23T18:48:47.353Z,3.58
2022-12-23T18:51:20.302Z,2.72
2022-12-23T18:53:48.249Z,1.55
2022-12-23T18:56:16.629Z,3.50
2022-12-23T18:58:43.479Z,3.15
2022-12-23T19:01:15.756Z,1.33
2022-12-23T19:03:43.026Z,12.80
2022-12-23T19:06:12.851Z,1.15
2022-12-23T19:08:40.679Z,7.95
2022-12-23T19:11:18.837Z,1.73
2022-12-23T19:13:46.911Z,1.67
2022-12-23T19:16:19.462Z,1.10
2022-12-23T19:18:47.807Z,2.83
2022-12-23T19:21:15.623Z,0.95
2022-12-23T19:23:43.112Z,1.70
2022-12-23T19:26:11.712Z,0.88
2022-12-23T19:28:38.928Z,2.50
2022-12-23T19:31:14.326Z,2.08
2022-12-23T19:33:43.197Z,2.60
2022-12-23T19:36:22.775Z,1.13
2022-12-23T19:38:49.897Z,2.53
2022-12-23T19:41:17.075Z,3.60
2022-12-23T19:43:46.004Z,2.58
2022-12-23T19:46:14.386Z,1.80
2022-12-23T19:48:41.539Z,3.28
2022-12-23T19:51:10.891Z,1.42
2022-12-23T19:53:40.138Z,1.38
2022-12-23T19:56:08.277Z,1.67
2022-12-23T19:58:36.769Z,1.10
2022-12-23T20:01:15.007Z,1.52
2022-12-23T20:03:43.453Z,1.92
2022-12-23T20:06:39.435Z,2.35
2022-12-23T20:09:07.824Z,2.92
2022-12-23T20:11:37.323Z,3.00
2022-12-23T20:14:05.423Z,3.88
2022-12-23T20:16:33.128Z,2.20
2022-12-23T20:18:59.963Z,1.48
2022-12-23T20:21:26.785Z,2.83
2022-12-23T20:23:53.757Z,2.13
2022-12-23T20:26:21.475Z,2.05
2022-12-23T20:28:48.269Z,3.17
2022-12-23T20:31:29.962Z,4.72
2022-12-23T20:33:57.612Z,2.42
2022-12-23T20:36:30.524Z,2.78
2022-12-23T20:38:57.776Z,1.45
2022-12-23T20:41:27.159Z,1.80
2022-12-23T20:44:31.829Z,1.77
2022-12-23T20:46:41.299Z,3.10
2022-12-23T20:49:08.117Z,2.95
2022-12-23T20:51:34.864Z,3.22
2022-12-23T20:54:01.687Z,2.55
2022-12-23T20:56:30.223Z,6.65
2022-12-23T20:58:59.032Z,4.30
2022-12-23T21:01:33.610Z,3.47
2022-12-23T21:04:02.556Z,3.38
2022-12-23T21:06:30.869Z,4.07
2022-12-23T21:08:59.695Z,2.60
2022-12-23T21:11:31.447Z,9.57
2022-12-23T21:14:06.438Z,3.33
2022-12-23T21:16:35.730Z,5.38
2022-12-23T21:19:03.359Z,5.88
2022-12-23T21:21:31.790Z,4.10
2022-12-23T21:24:01.698Z,4.65
2022-12-23T21:26:30.263Z,7.03
2022-12-23T21:28:59.430Z,5.75
2022-12-23T21:31:28.016Z,10.45
2022-12-23T21:33:55.004Z,4.18
2022-12-23T21:36:26.508Z,3.45
2022-12-23T21:38:53.672Z,10.93
2022-12-23T21:41:31.708Z,9.70
2022-12-23T21:43:59.157Z,5.25
2022-12-23T21:46:27.613Z,7.65
2022-12-23T21:48:56.091Z,7.07
2022-12-23T21:51:26.043Z,9.25
2022-12-23T21:53:56.011Z,7.80
2022-12-23T21:56:26.014Z,8.25
2022-12-23T21:59:00.745Z,8.80
2022-12-23T22:01:28.287Z,9.68
2022-12-23T22:03:56.137Z,5.97
2022-12-23T22:06:25.286Z,8.43
2022-12-23T22:08:53.911Z,9.95
2022-12-23T22:11:23.886Z,12.00
2022-12-23T22:13:50.959Z,11.80
2022-12-23T22:16:23.031Z,8.13
2022-12-23T22:18:50.591Z,6.15
2022-12-23T22:21:20.582Z,9.50
2022-12-23T22:23:48.545Z,7.38
2022-12-23T22:26:24.242Z,7.40
2022-12-23T22:28:56.196Z,12.48
2022-12-23T22:31:35.457Z,8.07
2022-12-23T22:34:02.963Z,7.72
2022-12-23T22:36:30.461Z,11.98
2022-12-23T22:38:59.485Z,8.80
2022-12-23T22:41:28.154Z,11.48
2022-12-23T22:43:55.449Z,11.20
2022-12-23T22:46:24.329Z,9.65
2022-12-23T22:48:51.982Z,11.13
2022-12-23T22:51:22.799Z,12.25
2022-12-23T22:53:49.642Z,17.70
2022-12-23T22:56:18.299Z,9.82
2022-12-23T22:58:45.254Z,10.05
2022-12-23T23:01:33.370Z,5.85
2022-12-23T23:04:02.161Z,13.32
2022-12-23T23:06:31.893Z,4.93
2022-12-23T23:08:58.714Z,11.27
2022-12-23T23:11:26.954Z,9.55
2022-12-23T23:13:54.321Z,6.18
2022-12-23T23:16:21.215Z,11.02
2022-12-23T23:18:48.686Z,12.48
2022-12-23T23:21:15.771Z,8.82
2022-12-23T23:23:42.761Z,6.28
2022-12-23T23:26:10.325Z,6.63
2022-12-23T23:28:39.308Z,6.20
2022-12-23T23:31:39.914Z,9.88
2022-12-23T23:33:53.624Z,9.38
2022-12-23T23:36:20.694Z,9.85
2022-12-23T23:38:47.507Z,11.73
2022-12-23T23:41:20.498Z,16.05
2022-12-23T23:43:49.582Z,10.40
2022-12-23T23:46:16.472Z,14.90
2022-12-23T23:48:43.227Z,8.05
2022-12-23T23:51:10.024Z,12.50
2022-12-23T23:53:36.912Z,16.40
2022-12-23T23:56:06.132Z,14.23
2022-12-23T23:58:33.329Z,13.40
